Time;durP1;ratioP1;P1;durP2;ratioP2;P2;SDS_P1;SDS_P2;PMS_P1;PMS_P2;Temp;Humidity;BMP_temperature;BMP_pressure;BME280_temperature;BME280_humidity;BME280_pressure;Samples;Min_cycle;Max_cycle;Signal;HPM_P1;HPM_P2
2021/10/30 00:00:23;;;;;;;21.02;16.33;;;6.80;99.90;;;;;;5045812;28;20018;-79
2021/10/30 00:02:51;;;;;;;21.10;16.90;;;6.70;99.90;;;;;;5028643;28;20025;-82
2021/10/30 00:05:17;;;;;;;22.45;16.23;;;6.70;99.90;;;;;;5059245;23;20053;-76
2021/10/30 00:07:43;;;;;;;22.27;15.48;;;6.60;99.90;;;;;;5022456;28;20359;-77
2021/10/30 00:10:11;;;;;;;20.23;15.90;;;6.50;99.90;;;;;;5027310;28;20029;-76
2021/10/30 00:12:36;;;;;;;19.65;15.82;;;6.60;99.90;;;;;;5029617;28;20083;-78
2021/10/30 00:15:04;;;;;;;21.25;15.05;;;6.50;99.90;;;;;;5008908;28;20042;-75
2021/10/30 00:17:29;;;;;;;18.58;13.98;;;6.50;99.90;;;;;;5021061;28;20021;-75
2021/10/30 00:19:55;;;;;;;19.40;15.70;;;6.40;99.90;;;;;;5017291;28;20053;-75
2021/10/30 00:22:27;;;;;;;21.45;15.52;;;6.40;99.90;;;;;;5035840;28;20065;-76
2021/10/30 00:24:53;;;;;;;20.58;15.35;;;6.40;99.90;;;;;;5037481;28;20009;-75
2021/10/30 00:27:18;;;;;;;21.25;14.88;;;6.40;99.90;;;;;;5027857;28;20036;-75
2021/10/30 00:29:44;;;;;;;23.73;14.40;;;6.40;99.90;;;;;;5025632;28;20544;-75
2021/10/30 00:32:10;;;;;;;19.52;14.88;;;6.30;99.90;;;;;;5015594;28;20117;-76
2021/10/30 00:34:35;;;;;;;21.27;15.38;;;6.30;99.90;;;;;;5018647;28;20021;-75
2021/10/30 00:37:01;;;;;;;19.80;16.08;;;6.30;99.90;;;;;;5033141;28;20026;-75
2021/10/30 00:39:27;;;;;;;15.82;13.88;;;6.30;99.90;;;;;;5015974;28;20037;-76
2021/10/30 00:41:53;;;;;;;20.08;14.15;;;6.30;99.90;;;;;;5033590;28;20022;-75
2021/10/30 00:44:20;;;;;;;21.77;15.73;;;6.30;99.90;;;;;;5014907;28;20030;-75
2021/10/30 00:46:49;;;;;;;21.70;15.35;;;6.30;99.90;;;;;;5024423;28;20022;-75
2021/10/30 00:49:16;;;;;;;20.00;14.93;;;6.30;99.90;;;;;;5024980;28;20505;-75
2021/10/30 00:51:43;;;;;;;22.17;15.30;;;6.20;99.90;;;;;;5019113;28;20112;-75
2021/10/30 00:54:11;;;;;;;19.50;15.27;;;6.10;99.90;;;;;;5022064;28;20466;-76
2021/10/30 00:56:38;;;;;;;18.27;14.77;;;6.10;99.90;;;;;;5030592;28;20502;-76
2021/10/30 00:59:08;;;;;;;19.05;15.30;;;6.10;99.90;;;;;;5007892;28;20030;-76
2021/10/30 01:01:35;;;;;;;18.50;15.45;;;6.10;99.90;;;;;;5033916;28;20033;-75
2021/10/30 01:04:01;;;;;;;22.98;16.48;;;6.00;99.90;;;;;;5025943;28;20033;-75
2021/10/30 01:06:27;;;;;;;20.15;15.20;;;6.00;99.90;;;;;;5034499;28;20401;-76
2021/10/30 01:08:53;;;;;;;19.42;15.00;;;6.10;99.90;;;;;;5029529;28;20112;-75
2021/10/30 01:11:20;;;;;;;20.80;15.18;;;6.00;99.90;;;;;;5005460;28;20457;-76
2021/10/30 01:13:47;;;;;;;20.10;16.30;;;6.00;99.90;;;;;;5026554;28;20021;-76
2021/10/30 01:16:12;;;;;;;17.92;14.68;;;6.00;99.90;;;;;;5030248;28;20113;-77
2021/10/30 01:18:39;;;;;;;21.88;14.88;;;6.00;99.90;;;;;;5020400;28;20042;-76
2021/10/30 01:21:05;;;;;;;21.13;15.38;;;5.90;99.90;;;;;;5031467;28;20021;-76
2021/10/30 01:23:31;;;;;;;18.17;15.10;;;5.90;99.90;;;;;;5036028;28;20029;-75
2021/10/30 01:26:02;;;;;;;17.95;14.38;;;5.90;99.90;;;;;;5033255;28;20060;-75
2021/10/30 01:28:30;;;;;;;;;;;5.90;99.90;;;;;;5033882;28;20033;-76
2021/10/30 01:30:56;;;;;;;20.58;15.13;;;5.80;99.90;;;;;;5026189;28;19913;-76
2021/10/30 01:33:22;;;;;;;18.30;15.13;;;5.80;99.90;;;;;;5023499;28;20395;-76
2021/10/30 01:35:48;;;;;;;17.88;15.32;;;5.80;99.90;;;;;;5021215;28;20029;-75
2021/10/30 01:38:14;;;;;;;19.50;14.93;;;5.80;99.90;;;;;;5018351;28;20037;-75
2021/10/30 01:40:43;;;;;;;21.30;14.48;;;5.80;99.90;;;;;;5024821;28;20030;-75
2021/10/30 01:43:10;;;;;;;18.02;14.95;;;5.70;99.90;;;;;;5025718;28;20077;-75
2021/10/30 01:45:36;;;;;;;18.80;14.50;;;5.70;99.90;;;;;;5003034;28;20030;-75
2021/10/30 01:48:02;;;;;;;18.80;15.27;;;5.70;99.90;;;;;;5022647;28;20129;-76
2021/10/30 01:50:28;;;;;;;21.92;15.48;;;5.70;99.90;;;;;;5023464;28;20095;-75
2021/10/30 01:52:59;;;;;;;20.67;16.15;;;5.70;99.90;;;;;;5018223;28;20048;-75
2021/10/30 01:55:26;;;;;;;18.27;15.15;;;5.60;99.90;;;;;;5024645;28;20030;-75
2021/10/30 01:57:51;;;;;;;19.95;16.40;;;5.60;99.90;;;;;;5035394;28;20025;-75
2021/10/30 02:00:17;;;;;;;22.98;16.13;;;5.60;99.90;;;;;;5040990;28;20045;-75
2021/10/30 02:02:43;;;;;;;20.77;16.05;;;5.60;99.90;;;;;;5053519;28;20033;-75
2021/10/30 02:05:10;;;;;;;21.75;16.73;;;5.60;99.90;;;;;;5042409;28;20044;-75
2021/10/30 02:07:36;;;;;;;19.80;15.77;;;5.60;99.90;;;;;;5036532;28;20030;-75
2021/10/30 02:10:04;;;;;;;20.02;15.27;;;5.60;99.90;;;;;;5020060;28;20040;-76
2021/10/30 02:12:29;;;;;;;18.13;14.82;;;5.60;99.90;;;;;;5023328;28;20075;-77
2021/10/30 02:14:55;;;;;;;18.85;15.20;;;5.60;99.90;;;;;;5024869;28;20454;-76
2021/10/30 02:17:21;;;;;;;17.88;14.70;;;5.50;99.90;;;;;;5027018;28;20029;-75
2021/10/30 02:19:47;;;;;;;17.40;14.77;;;5.50;99.90;;;;;;5015945;28;20034;-77
2021/10/30 02:22:12;;;;;;;18.60;15.30;;;5.50;99.90;;;;;;5023007;28;20482;-76
2021/10/30 02:24:38;;;;;;;18.80;14.52;;;5.50;99.90;;;;;;5034300;28;20033;-75
2021/10/30 02:27:04;;;;;;;22.27;15.88;;;5.50;99.90;;;;;;5026731;28;20371;-75
2021/10/30 02:29:29;;;;;;;18.95;15.25;;;5.50;99.90;;;;;;5023536;28;20034;-75
2021/10/30 02:31:55;;;;;;;20.83;16.05;;;5.50;99.90;;;;;;5030915;28;20040;-75
2021/10/30 02:34:20;;;;;;;20.13;15.98;;;5.40;99.90;;;;;;5026242;28;20078;-75
2021/10/30 02:36:46;;;;;;;19.45;14.73;;;5.40;99.90;;;;;;5028978;28;20103;-75
2021/10/30 02:39:12;;;;;;;18.45;14.93;;;5.40;99.90;;;;;;5004547;28;20022;-75
2021/10/30 02:41:38;;;;;;;20.40;15.45;;;5.50;99.90;;;;;;5032548;28;20025;-74
2021/10/30 02:44:04;;;;;;;17.65;14.38;;;5.50;99.90;;;;;;5017404;28;20038;-75
2021/10/30 02:46:30;;;;;;;18.60;14.25;;;5.50;99.90;;;;;;5021973;28;20040;-74
2021/10/30 02:48:55;;;;;;;17.42;15.35;;;5.40;99.90;;;;;;5028060;28;20063;-76
2021/10/30 02:51:21;;;;;;;20.30;15.23;;;5.40;99.90;;;;;;5022477;28;20528;-76
2021/10/30 02:53:47;;;;;;;20.48;15.18;;;5.40;99.90;;;;;;5026024;28;20025;-75
2021/10/30 02:56:12;;;;;;;18.00;14.50;;;5.30;99.90;;;;;;5008176;28;20018;-75
2021/10/30 02:58:38;;;;;;;19.30;15.65;;;5.30;99.90;;;;;;5020350;28;20057;-77
2021/10/30 03:01:05;;;;;;;18.80;14.30;;;5.30;99.90;;;;;;5031105;28;20029;-76
2021/10/30 03:03:31;;;;;;;20.08;15.57;;;5.30;99.90;;;;;;5028540;28;20438;-75
2021/10/30 03:05:57;;;;;;;19.23;14.68;;;5.20;99.90;;;;;;5024850;28;20033;-76
2021/10/30 03:08:23;;;;;;;17.90;15.07;;;5.20;99.90;;;;;;5023446;28;20032;-76
2021/10/30 03:10:49;;;;;;;18.05;15.48;;;5.20;99.90;;;;;;5023174;28;20056;-75
2021/10/30 03:13:15;;;;;;;19.40;15.15;;;5.20;99.90;;;;;;5039865;28;20053;-74
2021/10/30 03:15:40;;;;;;;19.40;15.35;;;5.30;99.90;;;;;;5032995;28;20383;-75
2021/10/30 03:18:06;;;;;;;18.73;15.30;;;5.30;99.90;;;;;;5022967;28;20025;-75
2021/10/30 03:20:32;;;;;;;17.83;13.93;;;5.20;99.90;;;;;;5021770;28;20370;-76
2021/10/30 03:22:58;;;;;;;23.55;14.77;;;5.20;99.90;;;;;;5003196;28;20045;-76
2021/10/30 03:25:23;;;;;;;22.40;15.90;;;5.20;99.90;;;;;;5002966;28;20034;-76
2021/10/30 03:27:49;;;;;;;17.42;14.75;;;5.20;99.90;;;;;;5026223;28;20084;-75
2021/10/30 03:30:14;;;;;;;18.05;13.75;;;5.10;99.90;;;;;;5020953;28;20389;-75
2021/10/30 03:32:40;;;;;;;20.70;16.23;;;5.10;99.90;;;;;;5028011;28;20494;-77
2021/10/30 03:35:06;;;;;;;19.13;15.27;;;5.10;99.90;;;;;;5022351;28;20447;-75
2021/10/30 03:37:34;;;;;;;19.02;14.77;;;5.10;99.90;;;;;;5024204;28;20076;-76
2021/10/30 03:40:00;;;;;;;22.40;15.68;;;5.10;99.90;;;;;;5025092;28;20018;-75
2021/10/30 03:42:25;;;;;;;19.17;14.60;;;5.10;99.90;;;;;;5028506;28;20514;-75
2021/10/30 03:44:51;;;;;;;19.98;15.35;;;5.10;99.90;;;;;;5020365;28;20101;-74
2021/10/30 03:47:17;;;;;;;21.60;15.10;;;5.00;99.90;;;;;;5014081;28;20040;-77
2021/10/30 03:49:43;;;;;;;17.05;14.85;;;5.00;99.90;;;;;;5024434;28;20025;-75
2021/10/30 03:52:08;;;;;;;18.02;14.90;;;5.00;99.90;;;;;;5013328;28;20490;-75
2021/10/30 03:54:34;;;;;;;18.15;14.68;;;5.00;99.90;;;;;;5020843;28;20092;-74
2021/10/30 03:57:00;;;;;;;21.13;16.23;;;5.00;99.90;;;;;;5013368;28;20075;-75
2021/10/30 03:59:25;;;;;;;19.55;13.85;;;5.00;99.90;;;;;;5019580;28;20494;-75
2021/10/30 04:01:51;;;;;;;18.17;14.52;;;5.00;99.90;;;;;;5010580;28;20350;-75
2021/10/30 04:04:17;;;;;;;18.77;14.20;;;5.00;99.90;;;;;;5032000;28;20287;-75
2021/10/30 04:06:42;;;;;;;19.23;14.32;;;5.00;99.90;;;;;;5020452;28;20398;-76
2021/10/30 04:09:08;;;;;;;14.93;13.05;;;5.10;99.90;;;;;;4997206;28;20119;-76
2021/10/30 04:11:34;;;;;;;15.73;14.02;;;5.00;99.90;;;;;;5031550;28;20030;-76
2021/10/30 04:14:00;;;;;;;17.90;13.77;;;5.00;99.90;;;;;;5032388;28;20075;-75
2021/10/30 04:16:26;;;;;;;18.10;13.82;;;5.10;99.90;;;;;;5013389;28;20068;-75
2021/10/30 04:18:51;;;;;;;14.68;12.95;;;5.30;99.90;;;;;;5021741;28;20030;-76
2021/10/30 04:21:17;;;;;;;14.93;13.00;;;5.50;99.90;;;;;;5024533;28;20025;-75
2021/10/30 04:23:42;;;;;;;16.83;13.20;;;5.50;99.90;;;;;;5025727;28;20097;-74
2021/10/30 04:26:08;;;;;;;15.32;12.95;;;5.50;99.90;;;;;;5010373;28;20025;-75
2021/10/30 04:28:34;;;;;;;14.38;12.50;;;5.50;99.90;;;;;;5001312;28;20025;-75
2021/10/30 04:31:05;;;;;;;14.52;11.75;;;5.50;99.90;;;;;;5027386;28;20486;-74
2021/10/30 04:33:32;;;;;;;12.98;10.55;;;5.70;99.90;;;;;;5025131;28;20030;-75
2021/10/30 04:35:58;;;;;;;13.93;11.95;;;5.80;99.90;;;;;;5033904;28;20038;-75
2021/10/30 04:38:23;;;;;;;15.25;11.95;;;5.80;99.90;;;;;;5009148;28;20420;-75
2021/10/30 04:40:49;;;;;;;14.57;11.98;;;5.70;99.90;;;;;;5017714;28;20060;-75
2021/10/30 04:43:14;;;;;;;14.15;12.05;;;5.50;99.90;;;;;;5018295;28;20034;-75
2021/10/30 04:45:41;;;;;;;13.38;11.73;;;5.50;99.90;;;;;;5024192;28;20022;-77
2021/10/30 04:48:07;;;;;;;13.20;11.35;;;5.30;99.90;;;;;;5023139;28;20109;-74
2021/10/30 04:50:33;;;;;;;16.95;13.40;;;5.40;99.90;;;;;;5006330;28;20105;-75
2021/10/30 04:52:58;;;;;;;13.82;12.38;;;5.40;99.90;;;;;;5023252;28;20090;-75
2021/10/30 04:55:24;;;;;;;13.85;12.20;;;5.30;99.90;;;;;;5025356;28;20411;-76
2021/10/30 04:57:50;;;;;;;14.50;12.88;;;5.30;99.90;;;;;;5023274;28;20049;-75
2021/10/30 05:00:15;;;;;;;14.25;12.00;;;5.30;99.90;;;;;;5030117;28;20554;-75
2021/10/30 05:02:41;;;;;;;16.67;12.13;;;5.20;99.90;;;;;;5029330;28;20517;-75
2021/10/30 05:05:07;;;;;;;13.38;11.65;;;5.20;99.90;;;;;;5033134;28;20045;-74
2021/10/30 05:07:33;;;;;;;13.50;11.60;;;5.10;99.90;;;;;;5043990;28;20098;-74
2021/10/30 05:09:58;;;;;;;17.77;13.32;;;5.10;99.90;;;;;;5047244;28;20021;-74
2021/10/30 05:12:24;;;;;;;14.40;12.77;;;5.00;99.90;;;;;;5044333;28;20053;-75
2021/10/30 05:14:49;;;;;;;16.05;13.40;;;4.90;99.90;;;;;;5011586;28;20366;-75
2021/10/30 05:17:15;;;;;;;17.45;13.73;;;4.90;99.90;;;;;;5034132;28;20035;-75
2021/10/30 05:19:40;;;;;;;18.83;13.85;;;4.90;99.90;;;;;;5029444;28;20108;-75
2021/10/30 05:22:06;;;;;;;19.27;14.63;;;4.90;99.90;;;;;;5020648;28;20042;-75
2021/10/30 05:24:32;;;;;;;15.68;13.02;;;4.80;99.90;;;;;;5025660;28;20113;-74
2021/10/30 05:26:57;;;;;;;16.77;13.32;;;4.70;99.90;;;;;;5034580;28;20033;-74
2021/10/30 05:29:23;;;;;;;15.05;12.98;;;4.80;99.90;;;;;;5028849;28;20029;-75
2021/10/30 05:31:49;;;;;;;16.40;12.63;;;4.80;99.90;;;;;;5028405;28;20142;-75
2021/10/30 05:34:14;;;;;;;18.83;14.35;;;4.80;99.90;;;;;;5023096;28;20088;-75
2021/10/30 05:36:40;;;;;;;17.98;14.07;;;4.80;99.90;;;;;;5023266;28;20022;-75
2021/10/30 05:39:12;;;;;;;20.90;13.45;;;4.70;99.90;;;;;;5016346;28;20021;-75
2021/10/30 05:41:38;;;;;;;17.02;13.38;;;4.70;99.90;;;;;;5017926;28;20032;-76
2021/10/30 05:44:04;;;;;;;16.75;13.75;;;4.80;99.90;;;;;;5021585;28;20029;-75
2021/10/30 05:46:30;;;;;;;21.50;13.85;;;4.90;99.90;;;;;;5016347;28;20073;-75
2021/10/30 05:48:56;;;;;;;15.48;13.35;;;4.90;99.90;;;;;;5022962;28;20530;-75
2021/10/30 05:51:22;;;;;;;16.13;13.70;;;5.00;99.90;;;;;;5011637;28;20038;-74
2021/10/30 05:53:47;;;;;;;18.10;12.77;;;5.00;99.90;;;;;;5021233;28;20466;-75
2021/10/30 05:56:13;;;;;;;20.17;14.68;;;5.00;99.90;;;;;;5017095;28;20030;-74
2021/10/30 05:58:38;;;;;;;14.80;13.25;;;4.90;99.90;;;;;;5021568;28;20063;-75
2021/10/30 06:01:04;;;;;;;15.77;13.02;;;4.90;99.90;;;;;;5030644;28;20026;-75
2021/10/30 06:03:30;;;;;;;16.60;12.48;;;4.90;99.90;;;;;;5056830;23;20033;-80
2021/10/30 06:05:56;;;;;;;19.48;13.00;;;4.80;99.90;;;;;;5046866;28;20041;-78
2021/10/30 06:08:21;;;;;;;13.40;12.00;;;4.90;99.90;;;;;;5053247;28;20039;-78
2021/10/30 06:10:47;;;;;;;18.95;13.10;;;4.90;99.90;;;;;;5025674;28;20032;-79
2021/10/30 06:13:12;;;;;;;15.23;12.63;;;5.00;99.90;;;;;;5060923;28;20041;-79
2021/10/30 06:15:38;;;;;;;17.48;11.77;;;5.10;99.90;;;;;;5038639;28;20044;-78
2021/10/30 06:18:04;;;;;;;15.50;11.75;;;5.30;99.90;;;;;;5014043;28;20276;-81
2021/10/30 06:20:29;;;;;;;13.23;11.93;;;5.40;99.90;;;;;;5038945;28;20040;-79
2021/10/30 06:22:55;;;;;;;15.73;11.60;;;5.50;99.90;;;;;;5032300;28;20022;-78
2021/10/30 06:25:20;;;;;;;15.95;11.32;;;5.40;99.90;;;;;;5008799;28;20029;-79
2021/10/30 06:27:46;;;;;;;12.43;10.52;;;5.60;99.90;;;;;;5008145;28;20033;-79
2021/10/30 06:30:13;;;;;;;20.17;12.18;;;5.60;99.90;;;;;;5026135;28;20505;-78
2021/10/30 06:32:39;;;;;;;12.32;11.05;;;5.50;99.90;;;;;;5017168;28;20030;-76
2021/10/30 06:35:06;;;;;;;13.60;11.88;;;5.60;99.90;;;;;;5002695;28;20120;-75
2021/10/30 06:37:33;;;;;;;14.93;11.50;;;5.70;99.90;;;;;;5036465;28;20448;-76
2021/10/30 06:39:59;;;;;;;15.18;9.80;;;5.80;99.90;;;;;;5024398;28;20249;-76
2021/10/30 06:42:24;;;;;;;14.07;10.50;;;5.90;99.90;;;;;;5017346;28;20022;-77
2021/10/30 06:44:50;;;;;;;12.93;11.13;;;5.90;99.90;;;;;;5019010;28;20026;-73
2021/10/30 06:47:17;;;;;;;13.52;10.77;;;5.90;99.90;;;;;;5023612;28;20029;-74
2021/10/30 06:49:42;;;;;;;12.18;10.00;;;5.80;99.90;;;;;;5026477;28;20025;-74
2021/10/30 06:52:09;;;;;;;14.45;11.30;;;5.90;99.90;;;;;;5026367;28;20033;-74
2021/10/30 06:54:35;;;;;;;17.27;10.90;;;5.80;99.90;;;;;;5004077;28;20030;-74
2021/10/30 06:57:01;;;;;;;13.57;11.05;;;5.70;99.90;;;;;;5019485;28;20018;-73
2021/10/30 06:59:28;;;;;;;12.70;10.80;;;5.70;99.90;;;;;;5025112;28;20029;-74
2021/10/30 07:01:54;;;;;;;14.07;11.35;;;5.70;99.90;;;;;;5035471;28;20025;-73
2021/10/30 07:04:19;;;;;;;12.23;10.90;;;5.70;99.90;;;;;;5038214;28;20589;-74
2021/10/30 07:06:45;;;;;;;12.57;10.57;;;5.70;99.90;;;;;;5039072;28;20053;-73
2021/10/30 07:09:10;;;;;;;13.85;11.90;;;5.70;99.90;;;;;;5036609;28;20029;-73
2021/10/30 07:11:36;;;;;;;18.92;10.88;;;5.80;99.90;;;;;;5033554;28;20113;-74
2021/10/30 07:14:02;;;;;;;14.75;11.60;;;6.00;99.90;;;;;;5038977;28;20054;-75
2021/10/30 07:16:28;;;;;;;11.13;9.88;;;6.10;99.90;;;;;;5038161;28;20030;-74
2021/10/30 07:18:53;;;;;;;12.55;9.75;;;6.40;99.90;;;;;;5034188;28;20470;-74
2021/10/30 07:21:19;;;;;;;14.38;10.32;;;6.60;99.90;;;;;;5028435;28;20038;-74
2021/10/30 07:23:44;;;;;;;12.48;10.43;;;6.60;99.90;;;;;;5001998;28;20021;-74
2021/10/30 07:26:10;;;;;;;12.98;10.52;;;6.80;99.90;;;;;;5016936;28;20081;-75
2021/10/30 07:28:35;;;;;;;11.98;9.85;;;6.90;99.90;;;;;;5014077;28;20064;-74
2021/10/30 07:31:01;;;;;;;12.90;10.30;;;6.90;99.90;;;;;;5013608;28;20088;-75
2021/10/30 07:33:27;;;;;;;13.02;10.52;;;6.90;99.90;;;;;;5025089;28;20025;-74
2021/10/30 07:35:52;;;;;;;12.65;10.30;;;7.00;99.90;;;;;;5033300;28;20033;-74
2021/10/30 07:38:18;;;;;;;11.60;9.70;;;7.10;99.90;;;;;;5015533;28;20017;-74
2021/10/30 07:40:44;;;;;;;13.02;9.95;;;7.10;99.90;;;;;;5034329;28;20489;-74
2021/10/30 07:43:10;;;;;;;12.65;10.45;;;7.40;99.90;;;;;;5017795;28;20029;-74
2021/10/30 07:45:35;;;;;;;12.75;9.48;;;7.70;99.90;;;;;;5033659;28;20022;-75
2021/10/30 07:48:01;;;;;;;15.32;10.60;;;7.80;99.90;;;;;;5023034;28;20030;-74
2021/10/30 07:50:30;;;;;;;13.63;11.07;;;7.90;99.90;;;;;;4997018;28;20044;-75
2021/10/30 07:52:59;;;;;;;12.32;9.88;;;8.00;99.90;;;;;;5013586;28;20026;-74
2021/10/30 07:55:25;;;;;;;11.52;10.32;;;8.00;99.90;;;;;;4997290;28;20022;-74
2021/10/30 07:57:50;;;;;;;10.68;9.57;;;7.90;99.90;;;;;;5002208;28;20022;-74
2021/10/30 08:00:16;;;;;;;11.35;10.15;;;8.10;99.90;;;;;;5009875;28;20577;-74
2021/10/30 08:02:43;;;;;;;11.57;9.85;;;8.30;99.90;;;;;;5026464;28;20034;-73
2021/10/30 08:05:10;;;;;;;17.10;10.13;;;8.40;99.90;;;;;;5039505;28;20034;-73
2021/10/30 08:07:36;;;;;;;11.55;9.98;;;8.40;99.90;;;;;;5039984;28;20022;-75
2021/10/30 08:10:06;;;;;;;10.52;9.43;;;8.30;99.90;;;;;;5035059;28;20021;-73
2021/10/30 08:12:35;;;;;;;15.30;10.23;;;8.50;99.90;;;;;;5033049;28;20036;-74
2021/10/30 08:15:02;;;;;;;11.65;10.30;;;8.50;99.90;;;;;;5028052;28;20041;-74
2021/10/30 08:17:28;;;;;;;13.07;10.68;;;8.60;99.90;;;;;;4996124;28;20037;-74
2021/10/30 08:19:53;;;;;;;11.20;9.63;;;8.60;99.90;;;;;;4996018;28;20026;-74
2021/10/30 08:22:19;;;;;;;13.45;10.75;;;8.60;99.90;;;;;;5014533;28;20033;-74
2021/10/30 08:24:46;;;;;;;15.02;11.27;;;8.70;99.90;;;;;;5015757;28;20033;-75
2021/10/30 08:27:13;;;;;;;12.70;10.55;;;8.80;99.90;;;;;;5015964;28;20038;-74
2021/10/30 08:29:39;;;;;;;10.82;9.82;;;8.90;99.90;;;;;;5033853;28;20036;-75
2021/10/30 08:32:06;;;;;;;11.75;9.75;;;8.80;99.90;;;;;;5033634;28;20469;-75
2021/10/30 08:34:33;;;;;;;15.23;10.95;;;8.80;99.90;;;;;;5020050;28;20018;-75
2021/10/30 08:36:59;;;;;;;15.27;10.63;;;8.60;99.90;;;;;;5033553;28;20032;-75
2021/10/30 08:39:27;;;;;;;12.73;10.60;;;8.50;99.90;;;;;;5033597;28;20017;-73
2021/10/30 08:41:53;;;;;;;15.60;10.48;;;8.70;99.90;;;;;;5019161;28;20105;-75
2021/10/30 08:44:20;;;;;;;17.67;11.25;;;8.90;99.90;;;;;;4994732;28;20025;-74
2021/10/30 08:46:46;;;;;;;11.30;9.35;;;8.90;99.90;;;;;;5012796;28;20129;-75
2021/10/30 08:49:12;;;;;;;11.50;9.80;;;9.00;99.90;;;;;;5027206;28;20481;-74
2021/10/30 08:51:40;;;;;;;12.32;10.70;;;8.80;99.90;;;;;;4996449;28;20034;-73
2021/10/30 08:54:06;;;;;;;13.38;10.25;;;9.00;99.90;;;;;;5015303;28;20056;-74
2021/10/30 08:56:32;;;;;;;11.10;9.80;;;9.30;99.90;;;;;;5015662;28;20421;-73
2021/10/30 08:58:59;;;;;;;11.68;10.23;;;9.30;99.90;;;;;;5030094;28;20117;-74
2021/10/30 09:01:25;;;;;;;10.98;9.85;;;9.10;99.90;;;;;;5036909;28;20022;-74
2021/10/30 09:03:58;;;;;;;15.70;10.40;;;9.50;99.90;;;;;;5036625;28;20600;-74
2021/10/30 09:06:39;;;;;;;11.60;10.40;;;9.80;99.90;;;;;;5020306;28;20049;-74
2021/10/30 09:09:16;;;;;;;13.75;10.38;;;9.80;99.90;;;;;;5024092;28;20072;-73
2021/10/30 09:11:52;;;;;;;11.30;9.88;;;9.90;99.90;;;;;;4999918;28;20018;-75
2021/10/30 09:14:22;;;;;;;13.93;9.93;;;9.50;99.90;;;;;;5016970;28;20025;-74
2021/10/30 09:17:17;;;;;;;11.65;9.43;;;9.50;99.90;;;;;;5018346;28;20017;-74
2021/10/30 09:19:54;;;;;;;14.32;10.55;;;9.80;99.90;;;;;;4999532;28;20026;-74
2021/10/30 09:22:24;;;;;;;12.88;10.38;;;9.70;99.90;;;;;;5017371;28;20444;-74
2021/10/30 09:25:03;;;;;;;12.20;10.90;;;9.80;99.90;;;;;;5020197;28;20391;-74
2021/10/30 09:27:46;;;;;;;11.45;10.25;;;9.90;99.90;;;;;;5026803;28;20033;-74
2021/10/30 09:30:13;;;;;;;11.20;9.93;;;9.90;99.90;;;;;;5041081;28;20025;-74
2021/10/30 09:32:40;;;;;;;17.67;12.05;;;9.60;99.90;;;;;;5041645;28;20079;-74
2021/10/30 09:35:06;;;;;;;11.35;10.20;;;9.40;99.90;;;;;;5036037;28;20026;-74
2021/10/30 09:37:35;;;;;;;11.25;10.07;;;9.30;99.90;;;;;;5021558;28;20493;-74
2021/10/30 09:40:16;;;;;;;11.52;10.32;;;9.30;99.90;;;;;;5048926;28;20031;-73
2021/10/30 09:42:44;;;;;;;13.73;10.52;;;9.10;99.90;;;;;;5019107;28;20033;-74
2021/10/30 09:45:10;;;;;;;14.57;9.85;;;9.10;99.90;;;;;;5017872;28;20057;-74
2021/10/30 09:47:36;;;;;;;14.50;11.05;;;9.10;99.90;;;;;;5017706;28;20108;-74
2021/10/30 09:50:02;;;;;;;14.57;10.55;;;9.10;99.90;;;;;;5018227;28;20054;-73
2021/10/30 09:52:28;;;;;;;12.02;10.68;;;9.20;99.90;;;;;;5001491;28;20367;-75
2021/10/30 09:54:54;;;;;;;12.75;10.63;;;9.20;99.90;;;;;;5020280;28;20079;-75
2021/10/30 09:57:28;;;;;;;11.55;10.40;;;9.20;99.90;;;;;;5019318;28;20045;-75
2021/10/30 09:59:58;;;;;;;14.07;11.30;;;9.40;99.90;;;;;;5018325;28;20108;-74
2021/10/30 10:02:25;;;;;;;13.40;10.82;;;9.40;99.90;;;;;;5001608;28;20493;-74
2021/10/30 10:04:52;;;;;;;13.00;10.00;;;9.50;99.90;;;;;;5035184;28;20029;-74
2021/10/30 10:07:22;;;;;;;12.45;9.63;;;9.70;99.90;;;;;;5021236;28;20022;-74
2021/10/30 10:09:50;;;;;;;16.02;9.32;;;10.00;99.90;;;;;;5048140;28;20009;-73
2021/10/30 10:12:16;;;;;;;14.13;9.65;;;10.10;99.90;;;;;;5045904;28;20033;-76
2021/10/30 10:14:45;;;;;;;9.82;8.85;;;10.10;99.90;;;;;;5025512;28;20056;-74
2021/10/30 10:17:12;;;;;;;14.93;10.55;;;10.20;99.90;;;;;;5039969;28;20029;-74
2021/10/30 10:19:38;;;;;;;14.27;9.68;;;10.00;99.90;;;;;;5031920;28;20018;-73
2021/10/30 10:22:05;;;;;;;13.18;10.85;;;9.70;99.90;;;;;;5019654;28;20033;-76
2021/10/30 10:24:35;;;;;;;12.40;10.55;;;9.70;99.90;;;;;;5019001;28;20042;-75
2021/10/30 10:27:04;;;;;;;15.82;11.73;;;9.80;99.90;;;;;;5020279;28;20029;-74
2021/10/30 10:29:34;;;;;;;12.25;10.38;;;9.80;99.90;;;;;;5029394;28;20041;-75
2021/10/30 10:32:04;;;;;;;14.98;11.20;;;9.70;99.90;;;;;;5022258;28;20041;-74
2021/10/30 10:34:35;;;;;;;13.02;10.85;;;9.80;99.90;;;;;;5037618;28;20013;-74
2021/10/30 10:37:14;;;;;;;14.25;10.25;;;10.00;99.90;;;;;;5001931;28;20026;-73
2021/10/30 10:39:45;;;;;;;13.50;10.48;;;10.00;99.90;;;;;;5029451;28;20026;-75
2021/10/30 10:42:12;;;;;;;11.57;10.30;;;9.90;99.90;;;;;;5021575;28;20481;-74
2021/10/30 10:44:41;;;;;;;17.52;10.57;;;10.00;99.90;;;;;;5022345;28;20029;-74
2021/10/30 10:47:31;;;;;;;12.73;10.95;;;10.10;99.90;;;;;;5022007;28;20068;-73
2021/10/30 10:50:05;;;;;;;13.57;11.10;;;10.30;99.90;;;;;;5025469;28;20042;-75
2021/10/30 10:52:31;;;;;;;15.25;10.93;;;10.30;99.90;;;;;;5002034;28;20112;-74
2021/10/30 10:55:01;;;;;;;12.93;11.23;;;10.30;99.90;;;;;;5018513;28;20054;-74
2021/10/30 10:57:32;;;;;;;16.20;12.68;;;10.30;99.90;;;;;;5037870;28;20033;-74
2021/10/30 11:00:08;;;;;;;12.20;10.90;;;10.60;99.90;;;;;;5039248;28;20021;-76
2021/10/30 11:02:51;;;;;;;12.40;11.20;;;10.60;99.90;;;;;;5037483;28;20030;-73
2021/10/30 11:05:22;;;;;;;11.57;10.27;;;10.60;99.90;;;;;;5024963;28;20053;-72
2021/10/30 11:07:51;;;;;;;13.15;11.77;;;10.50;99.90;;;;;;5025887;28;20033;-73
2021/10/30 11:10:20;;;;;;;14.38;12.02;;;10.60;99.90;;;;;;5044460;28;20053;-74
2021/10/30 11:13:21;;;;;;;13.40;12.00;;;10.70;99.90;;;;;;5041086;28;20021;-74
2021/10/30 11:15:54;;;;;;;16.95;12.15;;;10.40;99.90;;;;;;5018032;28;20058;-74
2021/10/30 11:18:25;;;;;;;14.55;11.88;;;10.10;99.90;;;;;;5029426;28;20037;-74
2021/10/30 11:21:12;;;;;;;;;;;9.90;99.90;;;;;;5011858;28;20026;-75
2021/10/30 11:23:42;;;;;;;15.95;12.35;;;9.90;99.90;;;;;;5020243;28;20322;-75
2021/10/30 11:26:27;;;;;;;12.85;11.57;;;9.90;99.90;;;;;;5019486;28;20022;-76
2021/10/30 11:28:53;;;;;;;15.73;12.73;;;9.90;99.90;;;;;;5016439;28;20088;-73
2021/10/30 11:31:21;;;;;;;16.55;13.15;;;10.00;99.90;;;;;;5022768;28;20047;-74
2021/10/30 11:33:58;;;;;;;14.63;13.00;;;10.10;99.90;;;;;;5034589;28;20082;-74
2021/10/30 11:36:25;;;;;;;16.02;12.68;;;10.10;99.90;;;;;;4997431;28;20029;-74
2021/10/30 11:38:53;;;;;;;16.45;12.73;;;10.10;99.90;;;;;;5014756;28;20021;-74
2021/10/30 11:41:21;;;;;;;14.93;12.15;;;10.20;99.90;;;;;;4997825;28;20052;-74
2021/10/30 11:43:50;;;;;;;14.05;12.55;;;10.20;99.90;;;;;;5015072;28;20036;-74
2021/10/30 11:46:18;;;;;;;14.45;12.43;;;10.20;99.90;;;;;;5018973;28;20030;-75
2021/10/30 11:48:49;;;;;;;13.93;12.45;;;10.30;99.90;;;;;;5035896;28;20025;-74
2021/10/30 11:51:18;;;;;;;16.75;11.73;;;10.30;99.90;;;;;;5015966;28;20449;-73
2021/10/30 11:53:49;;;;;;;13.85;11.75;;;10.30;99.90;;;;;;5034933;28;20084;-73
2021/10/30 11:56:26;;;;;;;16.25;12.15;;;10.20;99.90;;;;;;5033721;28;20066;-74
2021/10/30 11:58:53;;;;;;;15.95;12.73;;;10.20;99.90;;;;;;5015745;28;20018;-74
2021/10/30 12:01:28;;;;;;;16.13;12.73;;;10.20;99.90;;;;;;5017361;28;20033;-73
2021/10/30 12:04:08;;;;;;;20.90;12.23;;;10.20;99.90;;;;;;5019991;23;20033;-74
2021/10/30 12:06:46;;;;;;;15.88;12.45;;;10.50;99.90;;;;;;5053909;28;20400;-76
2021/10/30 12:09:20;;;;;;;16.63;12.88;;;10.60;99.90;;;;;;5052515;28;20021;-75
2021/10/30 12:11:46;;;;;;;15.93;12.55;;;10.20;99.90;;;;;;5053633;28;20029;-74
2021/10/30 12:14:19;;;;;;;17.65;13.70;;;10.10;99.90;;;;;;5048787;28;20032;-75
2021/10/30 12:16:46;;;;;;;17.13;14.32;;;10.00;99.90;;;;;;5033925;28;20030;-73
2021/10/30 12:19:12;;;;;;;18.67;14.63;;;9.90;99.90;;;;;;5034521;28;20072;-74
2021/10/30 12:21:37;;;;;;;20.35;14.30;;;9.90;99.90;;;;;;5033674;28;20117;-76
2021/10/30 12:24:09;;;;;;;15.48;13.60;;;9.90;99.90;;;;;;5033568;28;20022;-73
2021/10/30 12:26:52;;;;;;;17.73;13.32;;;10.00;99.90;;;;;;5017782;28;20029;-75
2021/10/30 12:29:20;;;;;;;15.25;13.27;;;10.20;99.90;;;;;;5014251;28;20049;-75
2021/10/30 12:32:06;;;;;;;18.08;15.88;;;10.10;99.90;;;;;;4994836;28;20022;-76
2021/10/30 12:34:37;;;;;;;17.17;14.05;;;10.10;99.90;;;;;;5014762;28;20083;-75
2021/10/30 12:37:13;;;;;;;23.25;14.07;;;10.20;99.90;;;;;;5013187;28;20390;-75
2021/10/30 12:39:54;;;;;;;19.00;13.93;;;10.30;99.90;;;;;;5015415;28;20030;-75